Time;durP1;ratioP1;P1;durP2;ratioP2;P2;SDS_P1;SDS_P2;PMS_P1;PMS_P2;Temp;Humidity;BMP_temperature;BMP_pressure;BME280_temperature;BME280_humidity;BME280_pressure;Samples;Min_cycle;Max_cycle;Signal;HPM_P1;HPM_P2
2021/10/06 00:01:20;;;;;;;11.18;2.22;;;;;;;10.34;100.00;100632.34;4921019;28;20059;-69
2021/10/06 00:03:49;;;;;;;12.30;2.22;;;;;;;10.32;100.00;100635.97;4927737;28;20067;-69
2021/10/06 00:06:17;;;;;;;10.48;2.30;;;;;;;10.39;100.00;100638.41;4920563;28;20047;-69
2021/10/06 00:08:45;;;;;;;8.20;2.47;;;;;;;10.42;100.00;100634.72;4923581;28;20051;-69
2021/10/06 00:11:14;;;;;;;11.95;2.35;;;;;;;10.46;100.00;100645.25;4918829;28;20125;-69
2021/10/06 00:13:42;;;;;;;9.07;2.50;;;;;;;10.45;100.00;100650.63;4921960;28;20518;-69
2021/10/06 00:16:12;;;;;;;14.90;2.50;;;;;;;10.46;100.00;100657.72;4921653;28;20072;-69
2021/10/06 00:18:41;;;;;;;7.20;1.90;;;;;;;10.51;100.00;100661.13;4923182;28;20059;-67
2021/10/06 00:21:10;;;;;;;6.15;1.83;;;;;;;10.50;100.00;100651.34;4921095;28;20391;-67
2021/10/06 00:23:38;;;;;;;15.00;2.97;;;;;;;10.53;nan;100645.06;4919313;28;20468;-67
2021/10/06 00:26:08;;;;;;;7.85;1.98;;;;;;;10.51;100.00;100654.91;4921751;28;20364;-67
2021/10/06 00:28:36;;;;;;;9.10;2.03;;;;;;;10.51;100.00;100663.78;4925255;28;20403;-68
2021/10/06 00:31:04;;;;;;;10.60;1.88;;;;;;;10.52;100.00;100657.53;4920937;28;20055;-67
2021/10/06 00:33:33;;;;;;;4.20;2.38;;;;;;;10.49;100.00;100659.41;4921402;28;20510;-67
2021/10/06 00:36:01;;;;;;;14.52;1.90;;;;;;;10.40;100.00;100664.16;4921647;28;20047;-68
2021/10/06 00:38:30;;;;;;;4.45;1.70;;;;;;;10.34;100.00;100663.50;4910019;28;20610;-67
2021/10/06 00:40:58;;;;;;;4.50;1.63;;;;;;;10.38;100.00;100671.31;4923391;28;20102;-71
2021/10/06 00:43:26;;;;;;;14.02;2.03;;;;;;;10.43;99.09;100671.16;4922518;28;20130;-70
2021/10/06 00:45:54;;;;;;;6.22;1.60;;;;;;;10.45;97.88;100675.53;4922263;28;20574;-71
2021/10/06 00:48:22;;;;;;;6.90;1.40;;;;;;;10.37;98.83;100674.94;4921464;28;20051;-71
2021/10/06 00:50:50;;;;;;;11.20;2.75;;;;;;;10.32;99.09;100686.66;4924065;28;20074;-71
2021/10/06 00:53:18;;;;;;;6.15;1.88;;;;;;;10.33;98.58;100688.41;4915361;28;20720;-72
2021/10/06 00:55:47;;;;;;;7.80;1.90;;;;;;;10.25;99.46;100681.50;4921889;28;20146;-71
2021/10/06 00:58:16;;;;;;;7.18;1.70;;;;;;;10.28;98.60;100694.75;4919366;28;20665;-71
2021/10/06 01:00:44;;;;;;;4.97;1.33;;;;;;;10.27;98.40;100695.66;4918244;28;20137;-72
2021/10/06 01:03:12;;;;;;;5.68;1.60;;;;;;;10.25;99.52;100692.19;4920377;28;20054;-71
2021/10/06 01:05:44;;;;;;;5.50;1.70;;;;;;;10.21;99.57;100698.50;4918316;28;20207;-72
2021/10/06 01:08:13;;;;;;;8.70;2.08;;;;;;;10.19;100.00;100697.69;4922592;28;20079;-72
2021/10/06 01:10:41;;;;;;;4.10;1.50;;;;;;;10.14;100.00;100694.31;4923253;28;20129;-72
2021/10/06 01:13:11;;;;;;;5.60;1.80;;;;;;;10.18;100.00;100689.75;4913260;28;20051;-72
2021/10/06 01:15:39;;;;;;;7.55;1.60;;;;;;;10.13;100.00;100703.25;4922587;28;20055;-73
2021/10/06 01:18:09;;;;;;;3.83;1.60;;;;;;;10.15;100.00;100692.50;4916558;28;20460;-73
2021/10/06 01:20:38;;;;;;;7.13;1.70;;;;;;;10.22;100.00;100699.41;4922059;28;20051;-72
2021/10/06 01:23:07;;;;;;;4.57;1.40;;;;;;;10.31;98.12;100703.56;4928617;28;20515;-73
2021/10/06 01:25:35;;;;;;;7.78;1.65;;;;;;;10.16;99.88;100718.25;4914590;28;20066;-72
2021/10/06 01:28:05;;;;;;;2.80;1.30;;;;;;;10.11;99.67;100710.41;4925119;28;20082;-72
2021/10/06 01:30:32;;;;;;;6.35;1.50;;;;;;;10.03;100.00;100716.00;4919228;28;20047;-72
2021/10/06 01:33:00;;;;;;;9.05;2.00;;;;;;;10.03;100.00;100704.47;4923804;28;20039;-68
2021/10/06 01:35:28;;;;;;;8.25;1.63;;;;;;;9.98;100.00;100704.59;4919365;28;20457;-68
2021/10/06 01:38:22;;;;;;;4.72;1.50;;;;;;;10.00;100.00;100705.41;4924516;28;20082;-68
2021/10/06 01:40:52;;;;;;;5.75;1.40;;;;;;;9.97;100.00;100699.31;4917399;28;20226;-68
2021/10/06 01:43:20;;;;;;;5.43;1.60;;;;;;;9.94;100.00;100697.59;4923871;28;20590;-69
2021/10/06 01:45:47;;;;;;;3.13;1.70;;;;;;;9.93;100.00;100703.88;4924067;28;20074;-68
2021/10/06 01:48:16;;;;;;;4.70;1.50;;;;;;;9.99;100.00;100700.13;4919605;28;20055;-69
2021/10/06 01:50:45;;;;;;;7.45;1.77;;;;;;;10.01;100.00;100703.63;4924847;28;20090;-69
2021/10/06 01:53:15;;;;;;;8.00;1.70;;;;;;;10.04;100.00;100714.19;4913569;28;20587;-68
2021/10/06 01:55:46;;;;;;;5.82;1.63;;;;;;;10.08;100.00;100713.19;4923723;28;20083;-68
2021/10/06 01:58:16;;;;;;;4.65;1.58;;;;;;;9.97;100.00;100707.31;4926743;28;20143;-68
2021/10/06 02:00:45;;;;;;;6.07;1.40;;;;;;;9.99;100.00;100701.00;4915347;28;20245;-68
2021/10/06 02:03:13;;;;;;;9.07;1.77;;;;;;;9.94;100.00;100702.06;4923796;28;20055;-68
2021/10/06 02:05:41;;;;;;;3.55;1.15;;;;;;;9.93;100.00;100697.66;4920265;28;20316;-68
2021/10/06 02:08:10;;;;;;;7.07;1.88;;;;;;;9.86;100.00;100707.66;4924569;28;20146;-68
2021/10/06 02:10:38;;;;;;;4.47;1.58;;;;;;;9.85;100.00;100709.44;4924385;28;20340;-69
2021/10/06 02:13:07;;;;;;;5.72;1.83;;;;;;;9.87;100.00;100715.59;4914007;28;20422;-68
2021/10/06 02:15:35;;;;;;;7.03;1.50;;;;;;;9.82;100.00;100720.19;4920863;28;20511;-68
2021/10/06 02:18:05;;;;;;;6.75;1.67;;;;;;;9.80;100.00;100710.50;4926372;28;20524;-68
2021/10/06 02:20:35;;;;;;;5.35;1.35;;;;;;;9.81;100.00;100707.78;4927682;28;20055;-68
2021/10/06 02:23:04;;;;;;;5.82;1.40;;;;;;;9.79;100.00;100711.41;4922973;28;20058;-68
2021/10/06 02:25:33;;;;;;;7.25;1.60;;;;;;;9.77;100.00;100707.94;4924022;28;20052;-69
2021/10/06 02:28:00;;;;;;;5.35;1.38;;;;;;;9.75;100.00;100709.78;4927047;28;20078;-68
2021/10/06 02:30:30;;;;;;;5.43;1.50;;;;;;;9.78;100.00;100704.34;4924488;28;20090;-69
2021/10/06 02:32:58;;;;;;;5.30;1.58;;;;;;;9.72;100.00;100708.97;4922383;28;20062;-68
2021/10/06 02:35:26;;;;;;;7.07;1.60;;;;;;;9.69;100.00;100703.72;4924285;28;20052;-68
2021/10/06 02:37:54;;;;;;;4.32;1.50;;;;;;;9.68;100.00;100701.97;4923921;28;20635;-69
2021/10/06 02:40:22;;;;;;;1.60;1.35;;;;;;;9.68;100.00;100701.97;4926823;28;20211;-68
2021/10/06 02:42:51;;;;;;;3.10;1.77;;;;;;;9.71;100.00;100707.19;4922308;28;20374;-68
2021/10/06 02:45:20;;;;;;;3.40;1.25;;;;;;;9.76;100.00;100706.19;4927244;28;20150;-68
2021/10/06 02:47:49;;;;;;;5.57;1.75;;;;;;;9.67;100.00;100700.22;4921644;28;20288;-68
2021/10/06 02:50:21;;;;;;;6.30;1.65;;;;;;;9.66;100.00;100719.78;4925993;28;20503;-68
2021/10/06 02:52:49;;;;;;;6.78;2.05;;;;;;;9.62;100.00;100717.25;4915832;28;20048;-68
2021/10/06 02:55:19;;;;;;;6.78;1.70;;;;;;;9.59;100.00;100699.59;4920811;28;20627;-68
2021/10/06 02:57:47;;;;;;;6.60;1.45;;;;;;;9.58;100.00;100695.16;4925065;28;20058;-68
2021/10/06 03:00:15;;;;;;;7.50;1.85;;;;;;;9.60;100.00;100711.97;4922079;28;20133;-68
2021/10/06 03:02:43;;;;;;;8.68;1.67;;;;;;;9.56;100.00;100704.13;4920331;28;20057;-68
2021/10/06 03:05:13;;;;;;;4.15;1.30;;;;;;;9.58;100.00;100715.63;4923994;28;20058;-68
2021/10/06 03:07:42;;;;;;;7.90;2.05;;;;;;;9.56;100.00;100723.66;4922320;28;20127;-68
2021/10/06 03:10:12;;;;;;;4.85;1.83;;;;;;;9.54;100.00;100718.34;4927530;28;20067;-68
2021/10/06 03:12:41;;;;;;;5.38;1.67;;;;;;;9.55;100.00;100724.56;4916845;28;20060;-68
2021/10/06 03:15:10;;;;;;;10.80;2.83;;;;;;;9.48;100.00;100709.69;4923012;28;20063;-68
2021/10/06 03:17:39;;;;;;;6.82;1.65;;;;;;;9.47;100.00;100713.28;4921361;28;20058;-68
2021/10/06 03:20:08;;;;;;;5.28;1.63;;;;;;;9.48;100.00;100718.56;4925915;28;20453;-68
2021/10/06 03:22:37;;;;;;;8.48;1.90;;;;;;;9.47;100.00;100714.13;4921718;28;20043;-68
2021/10/06 03:25:07;;;;;;;5.97;1.98;;;;;;;9.45;100.00;100723.97;4924573;28;20059;-68
2021/10/06 03:27:35;;;;;;;6.00;2.08;;;;;;;9.47;100.00;100718.59;4919361;28;20071;-68
2021/10/06 03:30:05;;;;;;;11.52;2.35;;;;;;;9.41;100.00;100711.66;4925987;28;20054;-68
2021/10/06 03:32:34;;;;;;;5.72;1.60;;;;;;;9.43;100.00;100709.84;4922490;28;20526;-68
2021/10/06 03:35:03;;;;;;;8.90;2.00;;;;;;;9.48;100.00;100715.91;4924726;28;20170;-68
2021/10/06 03:37:31;;;;;;;10.25;2.10;;;;;;;9.49;100.00;100722.09;4925023;28;20228;-68
2021/10/06 03:40:01;;;;;;;6.55;1.70;;;;;;;9.45;100.00;100710.66;4919586;28;20055;-68
2021/10/06 03:42:29;;;;;;;6.78;1.90;;;;;;;9.43;100.00;100704.50;4929309;28;22027;-67
2021/10/06 03:44:57;;;;;;;8.40;2.15;;;;;;;9.44;100.00;100703.56;4918726;28;20447;-67
2021/10/06 03:47:25;;;;;;;10.00;2.63;;;;;;;9.41;100.00;100697.47;4925295;28;20047;-67
2021/10/06 03:49:53;;;;;;;9.20;2.00;;;;;;;9.37;100.00;100694.03;4920018;28;20283;-67
2021/10/06 03:52:20;;;;;;;6.35;1.85;;;;;;;9.37;100.00;100698.50;4920875;28;20118;-67
2021/10/06 03:54:50;;;;;;;6.63;1.80;;;;;;;9.37;100.00;100693.16;4921788;28;20616;-67
2021/10/06 03:57:19;;;;;;;8.55;2.05;;;;;;;9.38;100.00;100697.56;4921758;28;20189;-67
2021/10/06 03:59:47;;;;;;;6.53;2.20;;;;;;;9.42;100.00;100689.44;4921462;28;20071;-68
2021/10/06 04:02:15;;;;;;;7.70;2.13;;;;;;;9.56;100.00;100669.50;4919835;28;20517;-67
2021/10/06 04:04:43;;;;;;;8.00;2.40;;;;;;;9.67;100.00;100684.25;4922863;28;20412;-68
2021/10/06 04:07:11;;;;;;;8.20;2.13;;;;;;;9.68;100.00;100672.66;4922841;28;20058;-68
2021/10/06 04:09:38;;;;;;;10.93;2.42;;;;;;;9.75;100.00;100668.00;4924374;28;20051;-68
2021/10/06 04:12:06;;;;;;;11.95;2.50;;;;;;;9.78;100.00;100667.06;4916657;28;21393;-68
2021/10/06 04:14:59;;;;;;;6.00;2.80;;;;;;;9.84;100.00;100670.41;4926124;28;20205;-69
2021/10/06 04:17:27;;;;;;;13.75;2.47;;;;;;;9.87;100.00;100672.06;4918817;28;20059;-68
2021/10/06 04:19:55;;;;;;;9.80;2.00;;;;;;;9.97;100.00;100672.66;4924848;28;20456;-70
2021/10/06 04:22:23;;;;;;;8.23;2.60;;;;;;;9.95;100.00;100677.19;4924692;28;20055;-68
2021/10/06 04:24:51;;;;;;;16.63;3.40;;;;;;;9.99;100.00;100679.66;4920653;28;20051;-68
2021/10/06 04:27:19;;;;;;;15.25;3.70;;;;;;;10.02;100.00;100676.91;4923359;28;20163;-69
2021/10/06 04:29:47;;;;;;;12.07;2.67;;;;;;;10.04;100.00;100683.06;4922695;28;20137;-68
2021/10/06 04:32:16;;;;;;;11.90;3.10;;;;;;;10.04;100.00;100672.41;4918098;28;20051;-69
2021/10/06 04:34:44;;;;;;;14.75;3.15;;;;;;;10.08;100.00;100673.19;4925831;28;20063;-69
2021/10/06 04:37:12;;;;;;;11.07;2.90;;;;;;;10.10;100.00;100677.53;4920567;28;20134;-69
2021/10/06 04:39:40;;;;;;;14.65;2.83;;;;;;;10.13;100.00;100673.03;4920599;28;20102;-73
2021/10/06 04:42:08;;;;;;;17.00;4.05;;;;;;;10.17;100.00;100667.56;4926838;28;20063;-73
2021/10/06 04:44:36;;;;;;;9.65;2.80;;;;;;;10.23;100.00;100680.69;4921262;28;20198;-72
2021/10/06 04:47:04;;;;;;;8.70;2.20;;;;;;;10.26;100.00;100691.22;4919517;28;20054;-71
2021/10/06 04:49:34;;;;;;;6.80;2.10;;;;;;;10.28;100.00;100688.50;4920894;28;20055;-72
2021/10/06 04:52:02;;;;;;;12.68;2.25;;;;;;;10.28;100.00;100691.19;4924380;28;20265;-73
2021/10/06 04:54:30;;;;;;;8.45;1.95;;;;;;;10.32;100.00;100692.88;4925197;28;20077;-73
2021/10/06 04:56:59;;;;;;;7.68;2.13;;;;;;;10.34;100.00;100700.84;4922626;28;20051;-75
2021/10/06 04:59:27;;;;;;;7.65;1.80;;;;;;;10.42;100.00;100704.97;4924687;28;20166;-73
2021/10/06 05:01:55;;;;;;;7.75;2.20;;;;;;;10.43;100.00;100706.69;4919484;28;20050;-74
2021/10/06 05:04:24;;;;;;;8.65;2.05;;;;;;;10.43;100.00;100714.72;4924244;28;20047;-72
2021/10/06 05:06:54;;;;;;;10.10;2.70;;;;;;;10.46;100.00;100713.75;4923330;28;20058;-72
2021/10/06 05:09:22;;;;;;;7.90;1.80;;;;;;;10.46;100.00;100714.63;4923617;28;20337;-71
2021/10/06 05:11:53;;;;;;;8.75;1.98;;;;;;;10.46;100.00;100716.41;4922401;28;20191;-71
2021/10/06 05:14:21;;;;;;;8.30;2.30;;;;;;;10.47;100.00;100728.81;4918558;28;20053;-70
2021/10/06 05:16:52;;;;;;;10.82;2.42;;;;;;;10.52;100.00;100732.22;4923148;28;20051;-71
2021/10/06 05:19:20;;;;;;;13.20;3.50;;;;;;;10.48;100.00;100727.03;4918204;28;20065;-67
2021/10/06 05:21:48;;;;;;;9.52;2.38;;;;;;;10.49;100.00;100726.09;4920528;28;20047;-68
2021/10/06 05:24:17;;;;;;;15.15;3.03;;;;;;;10.47;100.00;100718.13;4918501;28;20055;-68
2021/10/06 05:26:45;;;;;;;11.52;2.70;;;;;;;10.45;100.00;100730.66;4921982;28;20055;-67
2021/10/06 05:29:13;;;;;;;13.00;2.95;;;;;;;10.47;100.00;100712.81;4922827;28;20051;-68
2021/10/06 05:31:41;;;;;;;8.35;2.60;;;;;;;10.50;100.00;100744.72;4922414;28;20150;-68
2021/10/06 05:34:09;;;;;;;12.07;2.78;;;;;;;10.50;100.00;100744.72;4919989;28;20051;-67
2021/10/06 05:36:37;;;;;;;8.45;2.88;;;;;;;10.53;100.00;100741.09;4925395;28;20058;-67
2021/10/06 05:39:05;;;;;;;9.65;2.78;;;;;;;10.52;100.00;100742.00;4919417;28;20559;-68
2021/10/06 05:41:35;;;;;;;9.63;2.20;;;;;;;10.53;100.00;100757.97;4921460;28;20079;-68
2021/10/06 05:44:04;;;;;;;13.40;2.80;;;;;;;10.50;100.00;100757.19;4916887;28;20076;-68
2021/10/06 05:46:32;;;;;;;6.35;2.40;;;;;;;10.51;100.00;100759.81;4920818;28;20427;-69
2021/10/06 05:49:24;;;;;;;14.00;3.33;;;;;;;10.55;100.00;100763.25;4919147;28;20219;-69
2021/10/06 05:51:52;;;;;;;7.50;2.25;;;;;;;10.54;100.00;100765.06;4924445;28;20522;-69
2021/10/06 05:54:19;;;;;;;8.80;2.28;;;;;;;10.50;100.00;100763.41;4923823;28;20047;-69
2021/10/06 05:57:14;;;;;;;6.97;2.50;;;;;;;10.55;100.00;100760.59;4921660;28;20506;-67
2021/10/06 05:59:42;;;;;;;7.47;2.63;;;;;;;10.55;100.00;100766.78;4920924;28;20085;-67
2021/10/06 06:02:10;;;;;;;8.15;2.75;;;;;;;10.57;100.00;100775.63;4925606;28;20059;-70
2021/10/06 06:04:37;;;;;;;9.07;2.53;;;;;;;10.60;100.00;100779.97;4920236;28;20144;-69
2021/10/06 06:07:30;;;;;;;7.55;3.30;;;;;;;10.58;100.00;100789.84;4922899;28;20454;-69
2021/10/06 06:09:57;;;;;;;8.85;2.60;;;;;;;10.67;100.00;100788.66;4923379;28;20479;-68
2021/10/06 06:12:27;;;;;;;8.23;2.65;;;;;;;10.63;100.00;100795.91;4923529;28;20178;-68
2021/10/06 06:14:54;;;;;;;14.00;2.83;;;;;;;10.68;100.00;100798.44;4924096;28;20241;-68
2021/10/06 06:17:22;;;;;;;6.22;2.53;;;;;;;10.65;100.00;100802.91;4923739;28;20166;-68
2021/10/06 06:19:52;;;;;;;11.45;2.63;;;;;;;10.67;100.00;100802.00;4881260;28;20272;-68
2021/10/06 06:22:21;;;;;;;10.63;2.30;;;;;;;10.66;100.00;100806.47;4857493;28;20134;-68
2021/10/06 06:24:49;;;;;;;7.60;2.40;;;;;;;10.74;100.00;100801.72;4928624;28;20294;-68
2021/10/06 06:27:18;;;;;;;7.50;2.20;;;;;;;10.77;100.00;100806.97;4899365;28;20454;-68
2021/10/06 06:29:50;;;;;;;6.15;2.17;;;;;;;10.77;100.00;100812.31;4830292;28;20532;-68
2021/10/06 06:32:19;;;;;;;8.50;2.20;;;;;;;10.78;100.00;100830.09;4892643;28;20126;-67
2021/10/06 06:34:50;;;;;;;11.05;3.28;;;;;;;10.71;100.00;100830.31;4871524;28;20341;-67
2021/10/06 06:37:20;;;;;;;7.60;2.13;;;;;;;10.74;100.00;100825.75;4925193;28;20160;-68
2021/10/06 06:39:48;;;;;;;6.82;2.17;;;;;;;10.74;100.00;100817.75;4921520;28;20067;-68
2021/10/06 06:42:17;;;;;;;11.40;2.33;;;;;;;10.76;100.00;100823.94;4847346;28;20471;-68
2021/10/06 06:44:48;;;;;;;9.07;2.85;;;;;;;10.81;100.00;100837.09;4890019;28;20722;-72
2021/10/06 06:47:17;;;;;;;12.25;2.50;;;;;;;10.83;100.00;100837.94;4922407;28;20120;-73
2021/10/06 06:49:48;;;;;;;9.52;2.20;;;;;;;10.87;100.00;100838.72;4877453;28;20499;-72
2021/10/06 06:52:17;;;;;;;20.45;2.70;;;;;;;11.02;100.00;100840.88;4834205;28;20318;-72
2021/10/06 06:54:47;;;;;;;10.63;2.67;;;;;;;11.09;100.00;100834.38;4840477;28;20063;-73
2021/10/06 06:57:15;;;;;;;9.20;2.40;;;;;;;11.13;100.00;100841.34;4851030;28;20535;-73
2021/10/06 06:59:43;;;;;;;6.70;2.33;;;;;;;11.17;100.00;100847.50;4922621;28;20103;-71
2021/10/06 07:02:13;;;;;;;9.88;2.67;;;;;;;11.14;100.00;100842.25;4912779;28;20487;-72
2021/10/06 07:04:45;;;;;;;10.18;2.60;;;;;;;11.11;100.00;100856.56;4834602;28;20466;-72
2021/10/06 07:07:15;;;;;;;11.05;2.55;;;;;;;11.04;100.00;100860.38;4854449;28;20543;-73
2021/10/06 07:09:48;;;;;;;10.05;2.75;;;;;;;11.02;100.00;100860.41;4924037;28;20055;-73
2021/10/06 07:12:18;;;;;;;8.10;2.50;;;;;;;11.01;100.00;100873.81;4904684;28;21104;-73
2021/10/06 07:14:48;;;;;;;9.27;2.70;;;;;;;10.97;100.00;100875.72;4830522;28;20328;-73
2021/10/06 07:17:19;;;;;;;12.68;3.13;;;;;;;10.89;100.00;100879.56;4891204;28;20331;-73
2021/10/06 07:19:47;;;;;;;8.20;2.22;;;;;;;10.82;100.00;100858.41;4927650;28;20598;-71
2021/10/06 07:22:17;;;;;;;11.18;2.85;;;;;;;10.87;100.00;100878.75;4866164;28;20265;-72
2021/10/06 07:24:48;;;;;;;5.07;2.23;;;;;;;10.88;100.00;100875.16;4854110;28;20043;-73
2021/10/06 07:27:17;;;;;;;10.93;2.72;;;;;;;10.87;100.00;100890.28;4929646;28;20307;-74
2021/10/06 07:29:44;;;;;;;10.95;2.67;;;;;;;10.88;100.00;100900.06;4899035;28;20247;-70
2021/10/06 07:32:13;;;;;;;11.63;2.70;;;;;;;10.86;100.00;100901.03;4830756;28;20439;-73
2021/10/06 07:34:42;;;;;;;10.13;2.97;;;;;;;10.86;100.00;100909.03;4888470;28;20058;-73
2021/10/06 07:37:10;;;;;;;9.75;2.85;;;;;;;10.90;100.00;100924.03;4919892;28;20151;-73
2021/10/06 07:40:09;;;;;;;15.60;3.22;;;;;;;10.91;100.00;100926.63;4860228;28;20400;-73
2021/10/06 07:42:39;;;;;;;9.15;2.75;;;;;;;10.84;100.00;100912.66;4869546;28;20423;-73
2021/10/06 07:45:08;;;;;;;10.50;2.50;;;;;;;10.83;100.00;100918.88;4921178;28;20043;-73
2021/10/06 07:47:36;;;;;;;10.80;2.97;;;;;;;10.88;100.00;100915.19;4926637;28;20057;-71
2021/10/06 07:50:06;;;;;;;9.50;2.58;;;;;;;10.87;100.00;100925.00;4929564;28;20057;-73
2021/10/06 07:52:35;;;;;;;9.15;2.70;;;;;;;10.88;100.00;100926.75;4922976;28;20059;-71
2021/10/06 07:55:05;;;;;;;14.60;2.85;;;;;;;10.91;100.00;100920.44;4924978;28;20075;-71
2021/10/06 07:57:32;;;;;;;7.70;2.70;;;;;;;10.92;100.00;100916.84;4929088;28;20061;-72
2021/10/06 08:00:01;;;;;;;12.50;2.92;;;;;;;10.92;100.00;100901.69;4924186;28;20074;-72
2021/10/06 08:02:28;;;;;;;11.23;2.72;;;;;;;10.98;100.00;100914.84;4926482;28;20055;-73
2021/10/06 08:04:56;;;;;;;13.75;2.83;;;;;;;10.99;100.00;100921.06;4923645;28;20139;-71
2021/10/06 08:07:26;;;;;;;11.85;2.97;;;;;;;10.99;100.00;100916.59;4928235;28;20047;-72
2021/10/06 08:09:54;;;;;;;9.30;3.38;;;;;;;11.00;100.00;100922.81;4924821;28;20055;-72
2021/10/06 08:12:21;;;;;;;13.55;3.50;;;;;;;11.02;100.00;100928.97;4927392;28;20184;-72
2021/10/06 08:14:49;;;;;;;12.57;2.92;;;;;;;10.98;100.00;100929.97;4923188;28;20047;-70
2021/10/06 08:17:18;;;;;;;6.75;2.97;;;;;;;10.92;100.00;100930.19;4929232;28;20058;-71
2021/10/06 08:19:46;;;;;;;10.23;2.83;;;;;;;10.88;100.00;100921.41;4926375;28;20078;-71
2021/10/06 08:22:14;;;;;;;10.10;2.58;;;;;;;10.84;100.00;100946.44;4926200;28;20186;-72
2021/10/06 08:25:08;;;;;;;11.60;3.08;;;;;;;10.87;100.00;100954.38;4924419;28;20386;-72
2021/10/06 08:27:39;;;;;;;9.18;2.53;;;;;;;10.92;100.00;100951.56;4927126;28;20102;-71
2021/10/06 08:30:10;;;;;;;10.18;2.72;;;;;;;10.93;100.00;100969.31;4923641;28;20086;-71
2021/10/06 08:32:39;;;;;;;12.85;3.55;;;;;;;10.97;100.00;100969.16;4928288;28;20076;-70
2021/10/06 08:35:08;;;;;;;7.40;3.53;;;;;;;11.03;100.00;100989.44;4937687;28;20057;-71
2021/10/06 08:37:36;;;;;;;14.05;3.85;;;;;;;11.09;100.00;100978.59;4947985;28;20142;-68
2021/10/06 08:40:05;;;;;;;13.95;3.97;;;;;;;11.18;100.00;100988.09;4953702;28;20090;-69
2021/10/06 08:42:35;;;;;;;14.63;4.10;;;;;;;11.27;100.00;100994.94;4939907;28;20042;-69
2021/10/06 08:45:07;;;;;;;12.40;3.80;;;;;;;11.31;100.00;100996.59;4949640;28;20078;-69
2021/10/06 08:48:02;;;;;;;13.38;3.72;;;;;;;11.33;100.00;101010.78;4934743;28;20268;-67
2021/10/06 08:50:30;;;;;;;13.07;4.00;;;;;;;11.36;100.00;101016.88;4947558;28;20062;-70
2021/10/06 08:52:58;;;;;;;15.98;3.13;;;;;;;11.39;100.00;101013.22;4946007;28;20044;-68
2021/10/06 08:55:30;;;;;;;10.57;3.65;;;;;;;11.46;100.00;101025.50;4930708;28;20054;-68
2021/10/06 08:58:01;;;;;;;14.50;3.63;;;;;;;11.58;100.00;101022.41;4947998;28;20055;-69
2021/10/06 09:00:30;;;;;;;10.35;3.08;;;;;;;11.75;100.00;101021.84;4946447;28;20063;-68
2021/10/06 09:03:07;;;;;;;12.90;3.53;;;;;;;12.01;100.00;101032.59;4946467;28;20210;-68
2021/10/06 09:05:38;;;;;;;15.13;3.08;;;;;;;12.14;100.00;101044.63;4951753;28;20054;-68
2021/10/06 09:08:08;;;;;;;11.07;3.97;;;;;;;12.12;100.00;101041.09;4948237;28;20047;-68
2021/10/06 09:10:37;;;;;;;11.38;3.92;;;;;;;12.08;100.00;101048.34;4950859;28;20082;-68
2021/10/06 09:13:08;;;;;;;13.68;3.83;;;;;;;12.05;100.00;101053.81;4943435;28;20061;-68
2021/10/06 09:15:45;;;;;;;20.95;3.35;;;;;;;12.02;100.00;101071.75;4947939;28;20702;-68
2021/10/06 09:18:16;;;;;;;16.02;3.72;;;;;;;11.97;100.00;101066.59;4949532;28;20498;-69
2021/10/06 09:21:10;;;;;;;7.93;3.72;;;;;;;12.00;100.00;101082.50;4946171;28;20068;-68
2021/10/06 09:23:39;;;;;;;11.15;3.40;;;;;;;12.09;100.00;101081.34;4949740;28;20431;-71
2021/10/06 09:26:09;;;;;;;15.10;3.70;;;;;;;12.11;100.00;101088.38;4940645;28;20511;-67
2021/10/06 09:28:41;;;;;;;20.30;3.97;;;;;;;12.15;100.00;101095.34;4947559;28;20047;-67
2021/10/06 09:31:13;;;;;;;19.73;3.60;;;;;;;12.27;100.00;101109.25;4943590;28;20161;-68
2021/10/06 09:33:43;;;;;;;12.18;3.03;;;;;;;12.33;100.00;101107.25;4947019;28;20055;-67
2021/10/06 09:36:14;;;;;;;16.58;3.45;;;;;;;12.39;100.00;101129.34;4951807;28;20109;-67
2021/10/06 09:38:47;;;;;;;19.70;3.78;;;;;;;12.40;100.00;101131.97;4940754;28;20053;-67
2021/10/06 09:41:32;;;;;;;;;;;;;;;12.55;100.00;101127.91;4951806;28;20055;-67
2021/10/06 09:44:08;;;;;;;20.10;3.78;;;;;;;12.50;100.00;101132.53;4943239;28;19926;-69
2021/10/06 09:46:53;;;;;;;11.95;3.33;;;;;;;12.55;100.00;101129.69;4947523;28;20071;-66
2021/10/06 09:49:24;;;;;;;14.20;3.17;;;;;;;12.95;100.00;101136.28;4945777;28;20410;-66
2021/10/06 09:51:55;;;;;;;12.70;3.35;;;;;;;13.25;100.00;101136.94;4951271;28;20079;-66
2021/10/06 09:54:23;;;;;;;7.30;2.75;;;;;;;13.39;100.00;101142.63;4936393;28;20097;-69
2021/10/06 09:56:51;;;;;;;13.00;2.90;;;;;;;13.32;100.00;101146.50;4952478;28;20055;-69
2021/10/06 09:59:20;;;;;;;9.38;2.60;;;;;;;13.32;100.00;101151.84;4945286;28;20433;-69
2021/10/06 10:01:49;;;;;;;9.23;2.60;;;;;;;13.36;100.00;101169.56;4948855;28;20142;-68
2021/10/06 10:04:16;;;;;;;13.20;3.03;;;;;;;13.48;100.00;101154.81;4943120;28;20055;-68
2021/10/06 10:06:44;;;;;;;10.35;2.42;;;;;;;13.53;100.00;101166.22;4946831;28;20418;-68
2021/10/06 10:09:13;;;;;;;13.27;3.45;;;;;;;13.56;100.00;101162.56;4950533;28;20082;-68
2021/10/06 10:11:42;;;;;;;10.80;2.70;;;;;;;13.54;100.00;101165.31;4939051;28;20062;-68
2021/10/06 10:14:10;;;;;;;8.25;2.50;;;;;;;13.35;100.00;101181.22;4949843;28;20062;-73
2021/10/06 10:16:40;;;;;;;12.38;2.50;;;;;;;13.22;100.00;101179.91;4937169;28;20155;-74
2021/10/06 10:19:11;;;;;;;11.02;2.30;;;;;;;13.33;100.00;101198.28;4948674;28;20637;-73
2021/10/06 10:21:43;;;;;;;9.50;2.00;;;;;;;13.53;100.00;101198.41;4943129;28;20051;-73
2021/10/06 10:24:14;;;;;;;7.75;1.85;;;;;;;13.80;100.00;101208.97;4947889;28;20507;-73
2021/10/06 10:26:59;;;;;;;10.98;2.53;;;;;;;13.56;100.00;101209.00;4937739;28;20055;-72
2021/10/06 10:29:49;;;;;;;9.02;2.55;;;;;;;13.35;100.00;101218.75;4951588;28;20054;-71
2021/10/06 10:32:20;;;;;;;14.35;2.40;;;;;;;13.07;100.00;101222.41;4941018;28;20171;-71
2021/10/06 10:35:06;;;;;;;12.48;2.33;;;;;;;13.03;100.00;101235.97;4945849;28;20048;-72
2021/10/06 10:38:15;;;;;;;11.90;3.58;;;;;;;12.77;100.00;101247.59;4947277;28;20062;-72
2021/10/06 10:40:48;;;;;;;11.80;3.25;;;;;;;12.66;100.00;101247.97;4945374;28;20061;-73
2021/10/06 10:49:43;;;;;;;9.45;2.20;;;;;;;12.69;100.00;101267.47;4949041;28;20146;-75
2021/10/06 10:52:15;;;;;;;9.68;2.85;;;;;;;12.83;100.00;101258.97;4946539;28;20149;-73
2021/10/06 10:55:08;;;;;;;11.82;4.05;;;;;;;13.02;100.00;101267.22;4950094;28;20081;-74
2021/10/06 10:58:26;;;;;;;9.63;2.55;;;;;;;13.28;100.00;101281.53;4951551;28;20359;-73
2021/10/06 11:00:55;;;;;;;10.65;3.22;;;;;;;13.43;100.00;101281.00;4944404;28;20059;-73
2021/10/06 11:03:23;;;;;;;9.38;2.55;;;;;;;13.82;100.00;101284.88;4948649;28;20042;-73
2021/10/06 11:05:52;;;;;;;12.20;2.55;;;;;;;13.93;100.00;101284.50;4948365;28;20146;-73
2021/10/06 11:08:25;;;;;;;8.80;2.65;;;;;;;13.89;100.00;101286.41;4948098;28;20627;-72
2021/10/06 11:11:30;;;;;;;10.98;2.35;;;;;;;13.76;100.00;101296.75;4939478;28;20068;-73
2021/10/06 11:14:21;;;;;;;12.10;3.10;;;;;;;13.62;100.00;101302.63;4949095;28;20157;-74
2021/10/06 11:17:07;;;;;;;7.93;2.88;;;;;;;13.48;100.00;101302.25;4941590;28;20499;-73
2021/10/06 11:19:39;;;;;;;7.45;2.47;;;;;;;13.32;100.00;101293.03;4949986;28;20318;-73
2021/10/06 11:22:40;;;;;;;7.70;2.53;;;;;;;13.24;100.00;101306.66;4949186;28;20050;-73
2021/10/06 11:25:10;;;;;;;17.50;3.75;;;;;;;13.04;100.00;101328.78;4945068;28;20668;-77
2021/10/06 11:27:47;;;;;;;13.43;4.30;;;;;;;12.89;100.00;101317.69;4948741;28;20055;-69
2021/10/06 11:30:17;;;;;;;11.10;2.67;;;;;;;12.82;100.00;101315.25;4943806;28;20117;-68
2021/10/06 11:32:46;;;;;;;11.75;3.90;;;;;;;12.78;100.00;101322.53;4946498;28;20050;-71
2021/10/06 11:35:15;;;;;;;12.48;3.40;;;;;;;12.71;100.00;101331.69;4947552;28;20377;-68
2021/10/06 11:37:43;;;;;;;9.00;2.70;;;;;;;12.65;100.00;101337.25;4949867;28;20506;-69
2021/10/06 11:40:14;;;;;;;14.38;3.38;;;;;;;12.63;100.00;101349.81;4952964;28;20120;-69